createdAt,value
2019-03-19T00:00:11.167Z,81.87
2019-03-19T00:02:38.220Z,81.80
2019-03-19T00:05:05.389Z,81.59
2019-03-19T00:07:32.451Z,81.73
2019-03-19T00:09:59.505Z,81.41
2019-03-19T00:12:26.568Z,81.56
2019-03-19T00:14:53.634Z,81.42
2019-03-19T00:17:20.691Z,81.48
2019-03-19T00:19:47.749Z,81.50
2019-03-19T00:22:14.813Z,81.33
2019-03-19T00:24:41.870Z,81.45
2019-03-19T00:27:08.924Z,81.19
2019-03-19T00:29:36.004Z,81.18
2019-03-19T00:32:03.050Z,81.61
2019-03-19T00:34:30.158Z,81.83
2019-03-19T00:36:57.215Z,81.54
2019-03-19T00:39:24.267Z,81.24
2019-03-19T00:41:52.241Z,81.43
2019-03-19T00:44:19.498Z,81.56
2019-03-19T00:46:46.552Z,81.64
2019-03-19T00:49:13.633Z,81.68
2019-03-19T00:51:40.683Z,80.41
2019-03-19T00:54:07.750Z,80.51
2019-03-19T00:56:34.806Z,80.75
2019-03-19T00:59:01.879Z,81.05
2019-03-19T01:01:28.945Z,80.96
2019-03-19T01:03:56.038Z,80.58
2019-03-19T01:06:23.091Z,80.72
2019-03-19T01:08:50.151Z,80.74
2019-03-19T01:11:17.203Z,80.04
2019-03-19T01:13:44.265Z,80.43
2019-03-19T01:16:11.316Z,80.44
2019-03-19T01:18:38.390Z,80.48
2019-03-19T01:21:05.440Z,80.30
2019-03-19T01:23:32.490Z,80.51
2019-03-19T01:25:59.554Z,80.63
2019-03-19T01:28:26.635Z,80.45
2019-03-19T01:30:53.688Z,80.15
2019-03-19T01:33:20.754Z,80.31
2019-03-19T01:35:47.820Z,80.23
2019-03-19T01:38:14.912Z,80.47
2019-03-19T01:40:41.958Z,80.75
2019-03-19T01:43:09.017Z,80.48
2019-03-19T01:45:36.099Z,80.31
2019-03-19T01:48:03.568Z,80.42
2019-03-19T01:50:30.641Z,80.53
2019-03-19T01:52:57.705Z,80.61
2019-03-19T01:55:25.703Z,80.33
2019-03-19T01:57:52.930Z,80.13
2019-03-19T02:00:19.992Z,80.19
2019-03-19T02:02:47.048Z,80.28
2019-03-19T02:05:14.123Z,80.42
2019-03-19T02:07:41.296Z,80.35
2019-03-19T02:10:08.872Z,80.27
2019-03-19T02:12:35.967Z,80.41
2019-03-19T02:15:03.147Z,80.48
2019-03-19T02:17:30.212Z,80.48
2019-03-19T02:19:57.334Z,80.32
2019-03-19T02:22:24.385Z,80.23
2019-03-19T02:24:51.477Z,80.08
2019-03-19T02:27:18.527Z,79.95
2019-03-19T02:29:45.604Z,80.03
2019-03-19T02:32:12.721Z,80.16
2019-03-19T02:34:39.769Z,80.28
2019-03-19T02:37:06.834Z,80.24
2019-03-19T02:39:33.896Z,80.06
2019-03-19T02:42:00.960Z,79.96
2019-03-19T02:44:28.031Z,79.98
2019-03-19T02:46:55.090Z,79.87
2019-03-19T02:49:22.147Z,79.71
2019-03-19T02:51:49.221Z,79.68
2019-03-19T02:54:16.296Z,78.96
2019-03-19T02:56:43.344Z,79.13
2019-03-19T02:59:10.413Z,78.86
2019-03-19T03:01:37.479Z,79.04
2019-03-19T03:04:04.534Z,79.02
2019-03-19T03:06:31.593Z,79.21
2019-03-19T03:08:58.654Z,79.17
2019-03-19T03:11:25.694Z,78.93
2019-03-19T03:13:52.768Z,78.61
2019-03-19T03:16:20.006Z,78.39
2019-03-19T03:18:47.184Z,78.38
2019-03-19T03:21:14.271Z,77.30
2019-03-19T03:23:41.353Z,77.16
2019-03-19T03:26:08.418Z,77.34
2019-03-19T03:28:35.503Z,77.66
2019-03-19T03:31:02.553Z,77.93
2019-03-19T03:33:29.601Z,77.73
2019-03-19T03:35:56.651Z,77.83
2019-03-19T03:38:23.725Z,77.87
2019-03-19T03:40:50.807Z,78.03
2019-03-19T03:43:17.874Z,77.54
2019-03-19T03:45:44.947Z,77.45
2019-03-19T03:48:12.006Z,77.85
2019-03-19T03:50:39.065Z,77.94
2019-03-19T03:53:06.131Z,77.79
2019-03-19T03:55:33.193Z,78.02
2019-03-19T03:58:00.253Z,77.87
2019-03-19T04:00:27.300Z,77.69
2019-03-19T04:02:54.353Z,77.86
2019-03-19T04:05:21.417Z,78.01
2019-03-19T04:07:48.505Z,77.93
2019-03-19T04:10:15.540Z,77.94
2019-03-19T04:12:42.601Z,77.88
2019-03-19T04:15:10.239Z,77.62
2019-03-19T04:17:37.289Z,77.53
2019-03-19T04:20:04.759Z,77.53
2019-03-19T04:22:31.823Z,77.70
2019-03-19T04:24:58.883Z,77.50
2019-03-19T04:27:25.959Z,77.71
2019-03-19T04:29:53.025Z,77.64
2019-03-19T04:32:20.088Z,77.57
2019-03-19T04:34:47.139Z,77.53
2019-03-19T04:37:14.216Z,77.58
2019-03-19T04:39:41.279Z,77.49
2019-03-19T04:42:08.333Z,77.58
2019-03-19T04:44:35.402Z,77.41
2019-03-19T04:47:02.563Z,77.14
2019-03-19T04:49:29.623Z,76.58
2019-03-19T04:51:56.688Z,75.53
2019-03-19T04:54:23.784Z,76.03
2019-03-19T04:56:50.859Z,76.37
2019-03-19T04:59:17.926Z,76.41
2019-03-19T05:01:44.979Z,76.39
2019-03-19T05:04:12.028Z,76.41
2019-03-19T05:06:39.110Z,76.20
2019-03-19T05:09:07.142Z,76.36
2019-03-19T05:11:34.195Z,76.37
2019-03-19T05:14:01.249Z,76.57
2019-03-19T05:16:28.303Z,76.56
2019-03-19T05:18:55.366Z,76.52
2019-03-19T05:21:22.433Z,76.52
2019-03-19T05:23:49.503Z,75.76
2019-03-19T05:26:16.685Z,75.40
2019-03-19T05:28:43.747Z,75.76
2019-03-19T05:31:10.799Z,74.70
2019-03-19T05:33:37.891Z,74.97
2019-03-19T05:36:04.989Z,74.89
2019-03-19T05:38:32.023Z,75.18
2019-03-19T05:40:59.087Z,75.34
2019-03-19T05:43:26.149Z,75.03
2019-03-19T05:45:53.206Z,75.17
2019-03-19T05:48:20.284Z,75.30
2019-03-19T05:50:47.345Z,75.01
2019-03-19T05:53:14.437Z,75.36
2019-03-19T05:55:41.496Z,75.19
2019-03-19T05:58:08.593Z,75.09
2019-03-19T06:00:36.061Z,74.81
2019-03-19T06:03:03.119Z,73.62
2019-03-19T06:05:30.205Z,73.70
2019-03-19T06:07:57.288Z,73.95
2019-03-19T06:10:26.019Z,74.45
2019-03-19T06:12:53.381Z,74.50
2019-03-19T06:15:20.465Z,74.70
2019-03-19T06:17:47.530Z,74.55
2019-03-19T06:20:14.608Z,74.62
2019-03-19T06:22:41.682Z,74.35
2019-03-19T06:25:08.942Z,74.15
2019-03-19T06:27:36.020Z,74.41
2019-03-19T06:30:04.553Z,73.55
2019-03-19T06:32:31.619Z,73.67
2019-03-19T06:34:58.716Z,73.39
2019-03-19T06:37:25.795Z,73.41
2019-03-19T06:39:52.878Z,73.55
2019-03-19T06:42:19.987Z,73.81
2019-03-19T06:44:47.057Z,73.39
2019-03-19T06:47:14.119Z,73.65
2019-03-19T06:49:41.193Z,73.90
2019-03-19T06:52:08.267Z,73.56
2019-03-19T06:54:35.334Z,73.53
2019-03-19T06:57:02.429Z,73.62
2019-03-19T06:59:29.474Z,73.58
2019-03-19T07:01:56.545Z,72.58
2019-03-19T07:04:23.609Z,72.64
2019-03-19T07:06:50.731Z,73.05
2019-03-19T07:09:17.796Z,72.22
2019-03-19T07:11:44.880Z,72.22
2019-03-19T07:14:11.949Z,72.92
2019-03-19T07:16:39.013Z,73.23
2019-03-19T07:19:06.075Z,73.08
2019-03-19T07:21:33.141Z,73.23
2019-03-19T07:24:00.210Z,73.43
2019-03-19T07:26:27.275Z,73.41
2019-03-19T07:28:54.346Z,73.11
2019-03-19T07:31:30.392Z,72.77
2019-03-19T07:33:50.403Z,72.88
2019-03-19T07:36:17.471Z,72.61
2019-03-19T07:38:45.454Z,72.77
2019-03-19T07:41:12.554Z,72.82
2019-03-19T07:43:39.627Z,73.00
2019-03-19T07:46:06.660Z,73.04
2019-03-19T07:48:33.884Z,72.71
2019-03-19T07:51:00.959Z,72.54
2019-03-19T07:53:28.247Z,72.97
2019-03-19T07:55:55.321Z,72.85
2019-03-19T07:58:32.837Z,72.21
2019-03-19T08:00:51.369Z,72.18
2019-03-19T08:03:18.444Z,72.46
2019-03-19T08:05:45.507Z,72.69
2019-03-19T08:08:12.574Z,72.79
2019-03-19T08:10:39.647Z,72.62
2019-03-19T08:13:06.714Z,72.26
2019-03-19T08:15:33.778Z,72.21
2019-03-19T08:18:00.847Z,72.18
2019-03-19T08:20:27.926Z,72.43
2019-03-19T08:22:54.983Z,72.54
2019-03-19T08:25:22.064Z,71.26
2019-03-19T08:27:49.166Z,70.89
2019-03-19T08:30:16.276Z,71.33
2019-03-19T08:32:43.352Z,71.70
2019-03-19T08:35:10.400Z,72.03
2019-03-19T08:37:37.471Z,71.98
2019-03-19T08:40:05.333Z,72.14
2019-03-19T08:42:32.405Z,72.22
2019-03-19T08:44:59.504Z,71.75
2019-03-19T08:47:26.558Z,70.96
2019-03-19T08:49:53.711Z,71.22
2019-03-19T08:52:20.793Z,69.32
2019-03-19T08:54:47.862Z,69.88
2019-03-19T08:57:14.929Z,70.14
2019-03-19T08:59:42.001Z,71.36
2019-03-19T09:02:09.149Z,71.20
2019-03-19T09:04:36.220Z,70.16
2019-03-19T09:07:03.434Z,70.11
2019-03-19T09:09:30.502Z,68.37
2019-03-19T09:11:57.576Z,67.72
2019-03-19T09:14:24.660Z,65.22
2019-03-19T09:16:51.738Z,65.52
2019-03-19T09:19:18.865Z,65.92
2019-03-19T09:21:45.933Z,66.07
2019-03-19T09:24:13.014Z,67.35
2019-03-19T09:26:40.077Z,64.22
2019-03-19T09:29:16.307Z,64.07
2019-03-19T09:31:53.200Z,65.77
2019-03-19T09:34:20.447Z,67.09
2019-03-19T09:36:56.986Z,67.07
2019-03-19T09:39:16.503Z,67.31
2019-03-19T09:41:43.564Z,64.83
2019-03-19T09:44:10.625Z,61.40
2019-03-19T09:46:37.740Z,63.41
2019-03-19T09:49:04.804Z,64.85
2019-03-19T09:51:31.891Z,64.77
2019-03-19T09:53:58.976Z,64.55
2019-03-19T09:56:26.048Z,64.96
2019-03-19T09:58:53.107Z,65.09
2019-03-19T10:01:20.171Z,64.40
2019-03-19T10:03:47.245Z,65.13
2019-03-19T10:06:14.666Z,65.33
2019-03-19T10:08:41.920Z,65.46
2019-03-19T10:11:08.999Z,65.47
2019-03-19T10:13:36.090Z,64.30
2019-03-19T10:16:03.247Z,59.21
2019-03-19T10:18:30.353Z,60.86
2019-03-19T10:20:57.427Z,58.76
2019-03-19T10:23:24.524Z,58.82
2019-03-19T10:25:51.574Z,61.13
2019-03-19T10:28:18.673Z,62.52
2019-03-19T10:30:45.758Z,60.67
2019-03-19T10:33:12.864Z,60.96
2019-03-19T10:35:39.919Z,61.83
2019-03-19T10:38:06.984Z,61.46
2019-03-19T10:40:34.069Z,62.05
2019-03-19T10:43:01.131Z,62.60
2019-03-19T10:45:28.224Z,62.64
2019-03-19T10:47:55.267Z,61.97
2019-03-19T10:50:22.379Z,62.08
2019-03-19T10:52:49.479Z,62.01
2019-03-19T10:55:16.562Z,61.81
2019-03-19T10:57:43.631Z,61.73
2019-03-19T11:00:14.064Z,61.59
2019-03-19T11:02:41.193Z,61.36
2019-03-19T11:05:09.101Z,60.95
2019-03-19T11:07:36.159Z,58.65
2019-03-19T11:10:04.039Z,60.07
2019-03-19T11:12:31.139Z,59.81
2019-03-19T11:14:58.289Z,57.48
2019-03-19T11:17:25.419Z,55.45
2019-03-19T11:19:52.555Z,54.74
2019-03-19T11:22:19.628Z,56.04
2019-03-19T11:24:46.684Z,58.25
2019-03-19T11:27:13.751Z,58.13
2019-03-19T11:29:40.827Z,59.12
2019-03-19T11:32:07.881Z,59.07
2019-03-19T11:34:34.946Z,59.58
2019-03-19T11:37:02.021Z,56.41
2019-03-19T11:39:29.087Z,57.58
2019-03-19T11:41:56.165Z,57.22
2019-03-19T11:44:23.229Z,57.41
2019-03-19T11:46:50.546Z,57.95
2019-03-19T11:49:17.611Z,53.79
2019-03-19T11:51:44.669Z,54.74
2019-03-19T11:54:11.742Z,54.37
2019-03-19T11:56:38.816Z,54.82
2019-03-19T11:59:05.875Z,56.13
2019-03-19T12:01:32.934Z,56.63
2019-03-19T12:04:00.005Z,56.43
2019-03-19T12:06:27.074Z,55.30
2019-03-19T12:08:54.253Z,56.12
2019-03-19T12:11:21.359Z,54.73
2019-03-19T12:13:48.427Z,54.98
2019-03-19T12:16:15.498Z,56.30
2019-03-19T12:18:42.568Z,56.69
2019-03-19T12:21:09.683Z,56.39
2019-03-19T12:23:36.760Z,53.80
2019-03-19T12:26:03.823Z,53.09
2019-03-19T12:28:39.231Z,53.46
2019-03-19T12:30:59.889Z,53.81
2019-03-19T12:33:26.951Z,54.75
2019-03-19T12:35:54.022Z,54.07
2019-03-19T12:38:21.123Z,54.56
2019-03-19T12:40:48.216Z,55.48
2019-03-19T12:43:15.291Z,55.78
2019-03-19T12:45:42.411Z,55.99
2019-03-19T12:48:09.473Z,55.87
2019-03-19T12:50:36.538Z,55.03
2019-03-19T12:53:03.723Z,54.37
2019-03-19T12:55:30.796Z,55.33
2019-03-19T12:57:57.860Z,54.32
2019-03-19T13:00:55.473Z,53.96
2019-03-19T13:02:53.903Z,53.26
2019-03-19T13:05:22.508Z,53.10
2019-03-19T13:07:49.913Z,53.80
2019-03-19T13:10:17.067Z,54.43
2019-03-19T13:12:44.146Z,53.85
2019-03-19T13:15:11.692Z,53.98
2019-03-19T13:17:38.783Z,53.34
2019-03-19T13:20:07.216Z,53.67
2019-03-19T13:22:34.297Z,54.07
2019-03-19T13:25:01.379Z,52.97
2019-03-19T13:27:28.416Z,54.04
2019-03-19T13:29:55.479Z,54.35
2019-03-19T13:32:22.546Z,53.03
2019-03-19T13:34:49.664Z,52.19
2019-03-19T13:37:16.755Z,51.86
2019-03-19T13:39:43.879Z,51.95
2019-03-19T13:42:10.946Z,52.45
2019-03-19T13:44:38.022Z,53.13
2019-03-19T13:47:05.095Z,52.47
2019-03-19T13:49:32.170Z,51.56
2019-03-19T13:51:59.249Z,51.16
2019-03-19T13:54:26.294Z,51.26
2019-03-19T13:56:53.361Z,51.30
2019-03-19T13:59:20.416Z,51.72
2019-03-19T14:01:47.474Z,51.45
2019-03-19T14:04:14.543Z,52.33
2019-03-19T14:06:41.646Z,51.42
2019-03-19T14:09:09.043Z,51.72
2019-03-19T14:11:36.110Z,52.62
2019-03-19T14:14:03.168Z,52.84
2019-03-19T14:16:30.230Z,52.29
2019-03-19T14:18:57.328Z,52.54
2019-03-19T14:21:24.377Z,52.89
2019-03-19T14:23:51.444Z,53.04
2019-03-19T14:26:18.529Z,52.02
2019-03-19T14:28:45.590Z,51.69
2019-03-19T14:31:12.642Z,52.58
2019-03-19T14:33:39.727Z,52.37
2019-03-19T14:36:10.438Z,52.35
2019-03-19T14:38:46.723Z,53.08
2019-03-19T14:41:06.721Z,53.37
2019-03-19T14:43:33.778Z,53.52
2019-03-19T14:46:00.847Z,53.36
2019-03-19T14:48:27.945Z,51.92
2019-03-19T14:50:55.116Z,51.56
2019-03-19T14:53:22.229Z,52.23
2019-03-19T14:55:49.312Z,50.33
2019-03-19T14:58:16.400Z,49.87
2019-03-19T15:00:43.484Z,49.85
2019-03-19T15:03:10.575Z,49.61
2019-03-19T15:05:37.632Z,50.04
2019-03-19T15:08:04.696Z,50.00
2019-03-19T15:10:31.788Z,50.13
2019-03-19T15:12:58.852Z,51.07
2019-03-19T15:15:25.925Z,51.68
2019-03-19T15:17:52.991Z,52.16
2019-03-19T15:20:20.066Z,51.50
2019-03-19T15:22:47.129Z,50.85
2019-03-19T15:25:14.283Z,50.14
2019-03-19T15:27:41.379Z,50.46
2019-03-19T15:30:08.660Z,50.85
2019-03-19T15:32:35.762Z,51.60
2019-03-19T15:35:03.078Z,52.09
2019-03-19T15:37:30.184Z,52.04
2019-03-19T15:39:57.245Z,52.27
2019-03-19T15:42:24.405Z,52.58
2019-03-19T15:44:51.913Z,52.74
2019-03-19T15:47:19.083Z,52.95
2019-03-19T15:49:46.218Z,52.61
2019-03-19T15:52:13.359Z,50.73
2019-03-19T15:54:40.429Z,49.97
2019-03-19T15:57:07.615Z,50.44
2019-03-19T15:59:34.695Z,51.52
2019-03-19T16:02:01.779Z,52.14
2019-03-19T16:04:28.850Z,52.22
2019-03-19T16:06:55.924Z,51.51
2019-03-19T16:09:23.005Z,51.58
2019-03-19T16:11:50.072Z,51.74
2019-03-19T16:14:17.128Z,52.21
2019-03-19T16:16:44.199Z,52.08
2019-03-19T16:19:11.255Z,52.37
2019-03-19T16:21:38.338Z,52.48
2019-03-19T16:24:05.406Z,52.59
2019-03-19T16:26:32.469Z,51.95
2019-03-19T16:28:59.544Z,51.85
2019-03-19T16:31:26.598Z,51.80
2019-03-19T16:33:53.676Z,51.35
2019-03-19T16:36:20.738Z,51.00
2019-03-19T16:38:47.814Z,51.17
2019-03-19T16:41:14.902Z,51.36
2019-03-19T16:43:41.956Z,51.97
2019-03-19T16:46:09.062Z,51.68
2019-03-19T16:48:36.126Z,51.99
2019-03-19T16:51:03.207Z,52.34
2019-03-19T16:53:30.271Z,52.70
2019-03-19T16:55:57.373Z,52.86
2019-03-19T16:58:24.449Z,52.92
2019-03-19T17:00:51.532Z,53.02
2019-03-19T17:03:18.616Z,53.38
2019-03-19T17:05:45.677Z,53.51
2019-03-19T17:08:12.789Z,53.74
2019-03-19T17:10:39.854Z,53.96
2019-03-19T17:13:06.950Z,54.21
2019-03-19T17:15:34.008Z,54.45
2019-03-19T17:18:01.067Z,54.71
2019-03-19T17:20:28.124Z,54.89
2019-03-19T17:22:55.185Z,55.14
2019-03-19T17:25:22.291Z,55.35
2019-03-19T17:27:49.435Z,55.54
2019-03-19T17:30:21.346Z,55.78
2019-03-19T17:32:48.488Z,56.00
2019-03-19T17:35:15.542Z,56.19
2019-03-19T17:37:42.613Z,56.37
2019-03-19T17:40:09.791Z,56.53
2019-03-19T17:42:36.893Z,56.69
2019-03-19T17:45:04.771Z,56.83
2019-03-19T17:47:31.864Z,57.00
2019-03-19T17:49:58.944Z,57.12
2019-03-19T17:52:26.008Z,57.27
2019-03-19T17:54:53.070Z,57.43
2019-03-19T17:57:21.218Z,57.54
2019-03-19T17:59:48.291Z,57.65
2019-03-19T18:02:23.914Z,57.77
2019-03-19T18:04:47.339Z,57.88
2019-03-19T18:07:14.492Z,57.99
2019-03-19T18:09:41.671Z,58.12
2019-03-19T18:12:08.749Z,58.26
2019-03-19T18:14:35.806Z,58.39
2019-03-19T18:17:02.927Z,58.52
2019-03-19T18:19:29.995Z,58.65
2019-03-19T18:21:57.107Z,58.81
2019-03-19T18:24:24.209Z,58.99
2019-03-19T18:26:51.296Z,59.11
2019-03-19T18:29:18.369Z,59.18
2019-03-19T18:31:45.429Z,59.24
2019-03-19T18:34:12.618Z,59.29
2019-03-19T18:36:39.744Z,59.37
2019-03-19T18:39:07.399Z,59.55
2019-03-19T18:41:34.460Z,59.73
2019-03-19T18:44:01.569Z,59.79
2019-03-19T18:46:28.707Z,59.76
2019-03-19T18:48:55.798Z,59.85
2019-03-19T18:51:22.879Z,59.99
2019-03-19T18:53:50.019Z,60.08
2019-03-19T18:56:17.093Z,60.19
2019-03-19T18:58:44.209Z,60.31
2019-03-19T19:01:11.290Z,60.38
2019-03-19T19:03:40.347Z,60.53
2019-03-19T19:06:07.640Z,60.73
2019-03-19T19:08:35.119Z,60.88
2019-03-19T19:11:03.688Z,60.99
2019-03-19T19:13:30.940Z,61.04
2019-03-19T19:15:58.169Z,61.08
2019-03-19T19:18:25.181Z,61.21
2019-03-19T19:20:52.327Z,61.42
2019-03-19T19:23:19.468Z,61.68
2019-03-19T19:25:46.552Z,61.77
2019-03-19T19:28:14.052Z,61.76
2019-03-19T19:30:41.278Z,61.74
2019-03-19T19:33:08.387Z,61.82
2019-03-19T19:35:35.508Z,61.88
2019-03-19T19:38:03.634Z,61.93
2019-03-19T19:40:30.890Z,62.04
2019-03-19T19:42:58.048Z,62.26
2019-03-19T19:45:25.206Z,62.37
2019-03-19T19:47:52.305Z,62.49
2019-03-19T19:50:19.457Z,62.54
2019-03-19T19:52:46.664Z,62.63
2019-03-19T19:55:14.177Z,62.80
2019-03-19T19:57:41.305Z,62.91
2019-03-19T20:00:11.222Z,63.05
2019-03-19T20:02:38.343Z,63.05
2019-03-19T20:05:05.544Z,62.99
2019-03-19T20:07:32.849Z,63.19
2019-03-19T20:09:59.969Z,63.23
2019-03-19T20:12:27.040Z,63.27
2019-03-19T20:14:54.151Z,63.37
2019-03-19T20:17:21.236Z,63.42
2019-03-19T20:19:48.367Z,63.51
2019-03-19T20:22:15.603Z,63.44
2019-03-19T20:24:42.774Z,63.49
2019-03-19T20:27:09.856Z,63.62
2019-03-19T20:29:37.211Z,63.69
2019-03-19T20:32:04.419Z,63.78
2019-03-19T20:34:31.830Z,63.78
2019-03-19T20:36:58.894Z,63.83
2019-03-19T20:39:26.008Z,63.87
2019-03-19T20:41:53.096Z,63.92
2019-03-19T20:44:20.200Z,63.97
2019-03-19T20:46:47.309Z,64.16
2019-03-19T20:49:14.509Z,64.31
2019-03-19T20:51:41.791Z,64.55
2019-03-19T20:54:08.869Z,64.79
2019-03-19T20:56:36.445Z,64.69
2019-03-19T20:59:03.503Z,64.62
2019-03-19T21:01:30.600Z,64.54
2019-03-19T21:04:05.498Z,64.70
2019-03-19T21:06:32.799Z,64.71
2019-03-19T21:08:59.809Z,64.82
2019-03-19T21:11:26.918Z,64.96
2019-03-19T21:13:54.003Z,65.10
2019-03-19T21:16:21.095Z,65.00
2019-03-19T21:18:48.182Z,65.16
2019-03-19T21:21:15.261Z,65.15
2019-03-19T21:23:42.343Z,65.22
2019-03-19T21:26:09.418Z,65.31
2019-03-19T21:28:36.500Z,65.35
2019-03-19T21:31:03.592Z,65.46
2019-03-19T21:33:30.672Z,65.43
2019-03-19T21:35:57.755Z,65.48
2019-03-19T21:38:24.817Z,65.47
2019-03-19T21:40:51.894Z,65.47
2019-03-19T21:43:18.981Z,65.56
2019-03-19T21:45:46.026Z,65.59
2019-03-19T21:48:13.121Z,65.80
2019-03-19T21:50:40.212Z,65.89
2019-03-19T21:53:07.272Z,65.97
2019-03-19T21:55:34.368Z,65.97
2019-03-19T21:58:01.547Z,66.26
2019-03-19T22:00:28.618Z,66.16
2019-03-19T22:02:55.719Z,66.30
2019-03-19T22:05:22.855Z,66.34
2019-03-19T22:07:49.925Z,66.23
2019-03-19T22:10:16.988Z,66.32
2019-03-19T22:12:44.064Z,66.40
2019-03-19T22:15:13.612Z,66.58
2019-03-19T22:17:40.775Z,66.36
2019-03-19T22:20:08.066Z,66.31
2019-03-19T22:22:35.148Z,66.35
2019-03-19T22:25:02.259Z,66.35
2019-03-19T22:27:29.327Z,66.46
2019-03-19T22:29:56.468Z,66.54
2019-03-19T22:32:23.535Z,66.52
2019-03-19T22:34:50.605Z,66.57
2019-03-19T22:37:17.678Z,66.69
2019-03-19T22:39:44.816Z,66.82
2019-03-19T22:42:11.884Z,66.86
2019-03-19T22:44:38.975Z,66.90
2019-03-19T22:47:06.047Z,66.93
2019-03-19T22:49:34.607Z,66.99
2019-03-19T22:52:04.084Z,67.15
2019-03-19T22:54:31.147Z,67.43
2019-03-19T22:56:58.216Z,67.68
2019-03-19T22:59:25.289Z,67.69
2019-03-19T23:01:52.386Z,67.75
2019-03-19T23:04:27.101Z,67.60
2019-03-19T23:06:48.397Z,67.68
2019-03-19T23:09:15.463Z,67.65
2019-03-19T23:11:42.567Z,67.61
2019-03-19T23:14:09.617Z,67.74
2019-03-19T23:16:36.710Z,67.56
2019-03-19T23:19:05.631Z,67.63
2019-03-19T23:21:32.679Z,67.58
2019-03-19T23:23:59.747Z,67.46
2019-03-19T23:26:26.847Z,67.44
2019-03-19T23:28:53.906Z,67.42
2019-03-19T23:31:20.978Z,67.46
2019-03-19T23:33:48.044Z,67.51
2019-03-19T23:36:15.127Z,67.63
2019-03-19T23:38:42.195Z,67.73
2019-03-19T23:41:09.248Z,67.78
2019-03-19T23:43:36.308Z,67.75
2019-03-19T23:46:03.376Z,67.76
2019-03-19T23:48:30.447Z,67.75
2019-03-19T23:50:57.508Z,68.01
2019-03-19T23:53:24.592Z,67.92
2019-03-19T23:55:51.647Z,67.98
2019-03-19T23:58:18.726Z,68.06
